Time;durP1;ratioP1;P1;durP2;ratioP2;P2;SDS_P1;SDS_P2;PMS_P1;PMS_P2;Temp;Humidity;BMP_temperature;BMP_pressure;BME280_temperature;BME280_humidity;BME280_pressure;Samples;Min_cycle;Max_cycle;Signal;HPM_P1;HPM_P2
2024/02/25 00:00:39;;;;;;;3.93;3.33;;;5.90;1.00;;;;;;5108208;27;21118;-72
2024/02/25 00:03:07;;;;;;;3.35;3.05;;;6.00;1.00;;;;;;5110022;27;20562;-72
2024/02/25 00:05:37;;;;;;;4.03;3.72;;;6.10;1.00;;;;;;5106720;27;20343;-72
2024/02/25 00:08:05;;;;;;;3.83;3.42;;;6.00;1.00;;;;;;5110654;27;20244;-73
2024/02/25 00:10:32;;;;;;;4.07;3.67;;;6.10;1.00;;;;;;5091555;27;20344;-72
2024/02/25 00:12:59;;;;;;;4.50;4.10;;;6.10;1.00;;;;;;5098866;27;20590;-73
2024/02/25 00:15:26;;;;;;;3.65;3.35;;;6.10;1.00;;;;;;5100615;27;20473;-73
2024/02/25 00:17:53;;;;;;;3.80;3.50;;;6.10;1.00;;;;;;5086039;28;20243;-71
2024/02/25 00:20:24;;;;;;;3.55;3.25;;;6.10;1.00;;;;;;5109036;27;20493;-71
2024/02/25 00:22:51;;;;;;;3.53;3.23;;;6.10;1.00;;;;;;5090508;28;20317;-71
2024/02/25 00:25:18;;;;;;;4.18;3.50;;;6.10;1.00;;;;;;5087995;28;20561;-72
2024/02/25 00:27:45;;;;;;;4.00;3.60;;;6.10;1.00;;;;;;5090529;28;20336;-71
2024/02/25 00:30:14;;;;;;;3.60;3.30;;;6.10;1.00;;;;;;5089553;27;20236;-72
2024/02/25 00:32:40;;;;;;;4.27;3.20;;;6.10;1.00;;;;;;5089624;28;20573;-72
2024/02/25 00:35:08;;;;;;;3.83;3.53;;;6.10;1.00;;;;;;5088991;28;20520;-72
2024/02/25 00:37:38;;;;;;;3.53;3.22;;;6.20;1.00;;;;;;5098724;27;20270;-73
2024/02/25 00:40:06;;;;;;;3.70;3.40;;;6.10;1.00;;;;;;5088129;28;20246;-71
2024/02/25 00:42:32;;;;;;;3.97;3.57;;;6.10;1.00;;;;;;5098078;27;20573;-71
2024/02/25 00:44:59;;;;;;;3.63;3.20;;;6.10;1.00;;;;;;5089561;28;20473;-72
2024/02/25 00:47:26;;;;;;;4.22;3.72;;;6.10;1.00;;;;;;5095174;27;20981;-71
2024/02/25 00:49:53;;;;;;;4.85;4.45;;;6.20;1.00;;;;;;5098645;27;20321;-71
2024/02/25 00:52:20;;;;;;;3.78;3.47;;;6.20;1.00;;;;;;5087875;28;20313;-72
2024/02/25 00:54:49;;;;;;;3.45;3.15;;;6.20;1.00;;;;;;5090191;28;20239;-72
2024/02/25 00:57:16;;;;;;;5.43;4.00;;;6.20;1.00;;;;;;5097189;27;21221;-71
2024/02/25 00:59:43;;;;;;;8.88;5.65;;;6.20;1.00;;;;;;5088749;28;20744;-71
2024/02/25 01:02:10;;;;;;;6.53;4.38;;;6.20;1.00;;;;;;5100839;27;20243;-71
2024/02/25 01:04:37;;;;;;;3.73;3.43;;;6.20;1.00;;;;;;5102798;27;21453;-72
2024/02/25 01:07:04;;;;;;;4.00;3.60;;;6.20;1.00;;;;;;5100969;27;21022;-71
2024/02/25 01:09:31;;;;;;;6.80;3.83;;;6.20;1.00;;;;;;5104133;27;20319;-72
2024/02/25 01:11:59;;;;;;;6.17;4.70;;;6.10;1.00;;;;;;5110815;27;20480;-74
2024/02/25 01:14:26;;;;;;;4.65;4.25;;;6.10;1.00;;;;;;5099240;27;20481;-72
2024/02/25 01:16:54;;;;;;;4.40;4.00;;;6.20;1.00;;;;;;5094436;28;20316;-72
2024/02/25 01:19:21;;;;;;;4.20;3.60;;;6.20;1.00;;;;;;5096457;27;20487;-72
2024/02/25 01:21:48;;;;;;;3.22;2.92;;;6.20;1.00;;;;;;5088124;28;22415;-72
2024/02/25 01:24:16;;;;;;;3.20;3.00;;;6.20;1.00;;;;;;5089278;27;20288;-72
2024/02/25 01:26:43;;;;;;;4.60;3.42;;;6.20;1.00;;;;;;5091323;28;20441;-71
2024/02/25 01:29:11;;;;;;;3.90;3.53;;;6.30;1.00;;;;;;5097531;27;20234;-76
2024/02/25 01:31:43;;;;;;;3.60;3.30;;;6.30;1.00;;;;;;5091035;28;20243;-74
2024/02/25 01:34:10;;;;;;;6.80;3.80;;;6.20;1.00;;;;;;5091057;28;20856;-76
2024/02/25 01:36:38;;;;;;;7.15;4.40;;;6.10;1.00;;;;;;5103238;27;20229;-76
2024/02/25 01:39:05;;;;;;;3.80;3.50;;;6.00;1.00;;;;;;5091776;28;21136;-75
2024/02/25 01:41:32;;;;;;;3.57;3.00;;;6.00;1.00;;;;;;5097427;28;20454;-74
2024/02/25 01:43:59;;;;;;;3.53;3.23;;;5.90;1.00;;;;;;5094572;27;20524;-76
2024/02/25 01:46:27;;;;;;;4.85;3.13;;;5.90;1.00;;;;;;5088876;28;21166;-74
2024/02/25 01:48:54;;;;;;;3.95;3.50;;;5.80;1.00;;;;;;5093780;28;20287;-75
2024/02/25 01:51:22;;;;;;;3.50;3.30;;;5.80;1.00;;;;;;5088214;27;20238;-75
2024/02/25 01:53:50;;;;;;;4.13;3.30;;;5.70;1.00;;;;;;5090925;28;21066;-76
2024/02/25 01:56:17;;;;;;;3.38;3.15;;;5.60;1.00;;;;;;5108772;27;20236;-77
2024/02/25 01:58:45;;;;;;;5.15;4.22;;;5.60;1.00;;;;;;5092254;28;20294;-75
2024/02/25 02:01:14;;;;;;;6.18;4.05;;;5.60;1.00;;;;;;5092596;28;20339;-75
2024/02/25 02:03:43;;;;;;;5.00;3.70;;;5.60;1.00;;;;;;5088404;28;22533;-76
2024/02/25 02:06:10;;;;;;;5.03;4.50;;;5.60;1.00;;;;;;5101082;27;20985;-75
2024/02/25 02:08:41;;;;;;;4.50;4.10;;;5.60;1.00;;;;;;5092732;28;20243;-75
2024/02/25 02:11:15;;;;;;;4.83;4.40;;;5.70;1.00;;;;;;5089366;28;20288;-74
2024/02/25 02:13:42;;;;;;;5.82;4.50;;;5.70;1.00;;;;;;5091592;28;20513;-76
2024/02/25 02:16:12;;;;;;;4.35;4.05;;;5.60;1.00;;;;;;5097475;27;20326;-74
2024/02/25 02:18:42;;;;;;;6.70;4.18;;;5.50;1.00;;;;;;5104190;27;20237;-77
2024/02/25 02:21:11;;;;;;;6.38;3.80;;;5.50;1.00;;;;;;5117028;27;20267;-75
2024/02/25 02:23:38;;;;;;;4.43;3.95;;;5.50;1.00;;;;;;5098221;27;20325;-74
2024/02/25 02:26:05;;;;;;;4.65;4.05;;;5.40;1.00;;;;;;5094468;28;20267;-75
2024/02/25 02:28:32;;;;;;;3.88;3.25;;;5.30;1.00;;;;;;5090582;28;20618;-77
2024/02/25 02:30:59;;;;;;;4.73;3.73;;;5.40;1.00;;;;;;5090632;28;20814;-77
2024/02/25 02:33:26;;;;;;;4.70;4.30;;;5.30;1.00;;;;;;5089933;28;20525;-75
2024/02/25 02:35:52;;;;;;;11.05;5.40;;;5.30;1.00;;;;;;5090850;28;20266;-75
2024/02/25 02:38:21;;;;;;;5.70;3.70;;;5.30;1.00;;;;;;5089152;28;20772;-75
2024/02/25 02:40:49;;;;;;;4.45;4.05;;;5.20;1.00;;;;;;5091018;27;20324;-75
2024/02/25 02:43:15;;;;;;;5.95;5.10;;;5.20;1.00;;;;;;5097810;27;20236;-76
2024/02/25 02:45:43;;;;;;;5.10;4.60;;;5.10;1.00;;;;;;5112111;27;20265;-75
2024/02/25 02:48:10;;;;;;;5.97;3.75;;;5.10;1.00;;;;;;5104628;27;20348;-76
2024/02/25 02:50:37;;;;;;;6.32;4.38;;;5.00;1.00;;;;;;5100794;27;20244;-73
2024/02/25 02:53:04;;;;;;;4.97;4.45;;;5.00;1.00;;;;;;5096986;27;20334;-74
2024/02/25 02:55:33;;;;;;;6.45;4.57;;;4.80;1.00;;;;;;5101516;27;20236;-75
2024/02/25 02:58:01;;;;;;;4.80;4.00;;;4.80;1.00;;;;;;5093250;28;20244;-74
2024/02/25 03:00:28;;;;;;;9.93;4.43;;;4.70;1.00;;;;;;5096225;27;20239;-75
2024/02/25 03:02:55;;;;;;;4.82;4.10;;;4.70;1.00;;;;;;5097428;27;20240;-75
2024/02/25 03:05:22;;;;;;;5.25;4.15;;;4.80;1.00;;;;;;5092848;28;20313;-75
2024/02/25 03:07:53;;;;;;;6.00;4.15;;;4.70;1.00;;;;;;5088518;27;20326;-75
2024/02/25 03:10:20;;;;;;;7.35;4.25;;;4.70;1.00;;;;;;5090903;28;20986;-75
2024/02/25 03:12:49;;;;;;;5.65;4.13;;;4.50;1.00;;;;;;5079930;28;20245;-76
2024/02/25 03:15:16;;;;;;;8.82;4.47;;;4.40;1.00;;;;;;5093099;28;20323;-76
2024/02/25 03:17:44;;;;;;;4.82;4.22;;;4.30;1.00;;;;;;5078842;28;20232;-75
2024/02/25 03:20:12;;;;;;;8.63;4.57;;;4.20;1.00;;;;;;5071290;27;20244;-77
2024/02/25 03:22:40;;;;;;;4.05;3.65;;;4.10;1.00;;;;;;5091352;27;21102;-76
2024/02/25 03:25:08;;;;;;;6.45;4.20;;;4.00;1.00;;;;;;5082251;28;20323;-76
2024/02/25 03:27:36;;;;;;;6.30;5.05;;;4.00;1.00;;;;;;5074094;28;20263;-75
2024/02/25 03:30:07;;;;;;;4.40;3.70;;;3.90;1.00;;;;;;5074715;28;20241;-74
2024/02/25 03:32:34;;;;;;;5.63;4.43;;;3.90;1.00;;;;;;5079781;27;20236;-77
2024/02/25 03:35:01;;;;;;;4.20;3.80;;;4.00;1.00;;;;;;5092557;28;20319;-76
2024/02/25 03:37:28;;;;;;;6.82;5.45;;;4.10;1.00;;;;;;5074105;28;20247;-75
2024/02/25 03:39:55;;;;;;;5.78;4.25;;;4.10;1.00;;;;;;5085913;28;20240;-76
2024/02/25 03:42:22;;;;;;;4.45;4.05;;;4.10;1.00;;;;;;5069017;28;20250;-76
2024/02/25 03:44:49;;;;;;;5.43;4.40;;;4.10;1.00;;;;;;5084994;28;20328;-75
2024/02/25 03:47:17;;;;;;;8.85;5.15;;;4.10;1.00;;;;;;5088045;28;20241;-75
2024/02/25 03:49:44;;;;;;;5.75;4.60;;;4.00;1.00;;;;;;5076319;28;20242;-77
2024/02/25 03:52:11;;;;;;;5.20;4.70;;;4.00;1.00;;;;;;5078140;27;20268;-76
2024/02/25 03:54:38;;;;;;;6.35;4.28;;;4.00;1.00;;;;;;5071401;28;20342;-75
2024/02/25 03:57:05;;;;;;;4.68;4.10;;;4.00;1.00;;;;;;5076221;28;20323;-77
2024/02/25 03:59:34;;;;;;;6.50;4.30;;;3.90;1.00;;;;;;5091694;28;20332;-76
2024/02/25 04:02:03;;;;;;;4.93;4.43;;;3.80;1.00;;;;;;5091700;27;20323;-78
2024/02/25 04:04:31;;;;;;;4.97;4.57;;;3.80;1.00;;;;;;5068775;28;20937;-75
2024/02/25 04:06:58;;;;;;;5.95;4.68;;;3.70;1.00;;;;;;5081184;28;20235;-74
2024/02/25 04:09:25;;;;;;;4.63;4.22;;;3.80;1.00;;;;;;5086891;28;20293;-77
2024/02/25 04:11:52;;;;;;;5.13;4.63;;;3.70;1.00;;;;;;5107412;27;21013;-78
2024/02/25 04:14:18;;;;;;;5.90;5.10;;;3.70;1.00;;;;;;5091387;27;20240;-76
2024/02/25 04:16:45;;;;;;;6.20;5.28;;;3.80;1.00;;;;;;5088642;28;20323;-77
2024/02/25 04:19:12;;;;;;;5.63;4.97;;;3.80;1.00;;;;;;5091044;28;20319;-76
2024/02/25 04:21:41;;;;;;;5.32;4.82;;;3.80;1.00;;;;;;5092330;28;20239;-79
2024/02/25 04:24:08;;;;;;;6.03;5.45;;;3.70;1.00;;;;;;5098051;27;20326;-75
2024/02/25 04:26:35;;;;;;;5.57;5.05;;;3.70;1.00;;;;;;5093707;28;20244;-76
2024/02/25 04:29:02;;;;;;;5.53;4.90;;;3.70;1.00;;;;;;5093454;28;20309;-75
2024/02/25 04:31:29;;;;;;;5.15;4.65;;;3.80;1.00;;;;;;5094801;28;20228;-75
2024/02/25 04:33:56;;;;;;;6.90;4.95;;;3.80;1.00;;;;;;5112187;27;20262;-77
2024/02/25 04:36:23;;;;;;;8.75;5.05;;;3.80;1.00;;;;;;5094323;27;20246;-78
2024/02/25 04:38:53;;;;;;;5.95;4.95;;;3.70;1.00;;;;;;5091837;27;20236;-76
2024/02/25 04:41:20;;;;;;;6.07;5.05;;;3.80;1.00;;;;;;5089473;27;20244;-76
2024/02/25 04:43:47;;;;;;;5.10;4.60;;;3.80;1.00;;;;;;5093979;27;20298;-76
2024/02/25 04:46:14;;;;;;;5.38;4.90;;;3.80;1.00;;;;;;5100308;27;20243;-75
2024/02/25 04:48:42;;;;;;;6.28;4.65;;;3.80;1.00;;;;;;5100047;27;20665;-76
2024/02/25 04:51:09;;;;;;;5.43;5.03;;;3.70;1.00;;;;;;5084490;27;20972;-77
2024/02/25 04:53:37;;;;;;;4.95;4.40;;;3.60;1.00;;;;;;5104820;27;20264;-75
2024/02/25 04:56:06;;;;;;;6.15;5.43;;;3.60;1.00;;;;;;5094776;27;20750;-75
2024/02/25 04:58:33;;;;;;;5.68;5.18;;;3.50;1.00;;;;;;5099421;27;20786;-73
2024/02/25 05:01:00;;;;;;;5.72;5.13;;;3.50;1.00;;;;;;5089168;28;20235;-72
2024/02/25 05:03:27;;;;;;;5.13;4.70;;;3.50;1.00;;;;;;5092224;27;20262;-75
2024/02/25 05:05:54;;;;;;;6.20;4.45;;;3.40;1.00;;;;;;5091748;27;20240;-74
2024/02/25 05:08:21;;;;;;;5.78;5.28;;;3.40;1.00;;;;;;5091839;28;20315;-74
2024/02/25 05:10:49;;;;;;;5.50;5.00;;;3.40;1.00;;;;;;5090543;28;20232;-73
2024/02/25 05:13:18;;;;;;;5.50;4.97;;;3.40;1.00;;;;;;5097126;27;20258;-73
2024/02/25 05:15:45;;;;;;;5.70;5.07;;;3.40;1.00;;;;;;5090306;28;20723;-71
2024/02/25 05:18:12;;;;;;;6.05;5.50;;;3.40;1.00;;;;;;5089773;28;20346;-72
2024/02/25 05:20:39;;;;;;;5.70;5.10;;;3.40;1.00;;;;;;5090892;27;20309;-73
2024/02/25 05:23:05;;;;;;;7.15;5.35;;;3.30;1.00;;;;;;5086978;27;20243;-72
2024/02/25 05:25:32;;;;;;;7.45;5.60;;;3.30;1.00;;;;;;5107742;27;20314;-73
2024/02/25 05:28:03;;;;;;;5.40;4.90;;;3.30;1.00;;;;;;5103619;27;20240;-71
2024/02/25 05:30:32;;;;;;;5.97;5.38;;;3.30;1.00;;;;;;5092344;28;20285;-73
2024/02/25 05:32:59;;;;;;;6.07;5.40;;;3.30;1.00;;;;;;5093063;28;20922;-72
2024/02/25 05:35:26;;;;;;;6.88;5.80;;;3.40;1.00;;;;;;5088394;28;20669;-73
2024/02/25 05:37:53;;;;;;;7.60;5.88;;;3.40;1.00;;;;;;5090821;28;20235;-73
2024/02/25 05:40:21;;;;;;;5.10;4.60;;;3.40;1.00;;;;;;5107953;27;20230;-73
2024/02/25 05:42:48;;;;;;;5.63;4.95;;;3.40;1.00;;;;;;5096711;27;20242;-74
2024/02/25 05:45:15;;;;;;;5.22;4.72;;;3.40;1.00;;;;;;5092812;27;20319;-73
2024/02/25 05:47:44;;;;;;;7.90;6.25;;;3.40;1.00;;;;;;5094270;27;20755;-72
2024/02/25 05:50:11;;;;;;;5.72;5.13;;;3.40;1.00;;;;;;5103308;27;20414;-73
2024/02/25 05:52:38;;;;;;;6.35;5.15;;;3.30;1.00;;;;;;5112337;27;20307;-74
2024/02/25 05:55:06;;;;;;;6.82;5.57;;;3.30;1.00;;;;;;5092939;27;20268;-72
2024/02/25 05:57:33;;;;;;;5.32;4.93;;;3.30;1.00;;;;;;5088637;28;20330;-73
2024/02/25 06:00:02;;;;;;;5.25;4.60;;;3.30;1.00;;;;;;5091054;28;20293;-72
2024/02/25 06:02:29;;;;;;;6.72;5.80;;;3.30;1.00;;;;;;5102281;27;20980;-73
2024/02/25 06:04:58;;;;;;;5.78;5.18;;;3.30;1.00;;;;;;5094284;27;20263;-75
2024/02/25 06:07:27;;;;;;;7.25;5.85;;;3.30;1.00;;;;;;5098111;27;20285;-73
2024/02/25 06:09:53;;;;;;;6.25;5.55;;;3.30;1.00;;;;;;5091082;28;20718;-72
2024/02/25 06:12:20;;;;;;;8.45;5.60;;;3.30;1.00;;;;;;5089652;28;20804;-75
2024/02/25 06:14:47;;;;;;;7.03;5.63;;;3.20;1.00;;;;;;5101518;27;20247;-71
2024/02/25 06:17:14;;;;;;;5.95;5.35;;;3.20;1.00;;;;;;5093151;27;20327;-72
2024/02/25 06:19:41;;;;;;;6.65;5.97;;;3.20;1.00;;;;;;5093160;27;20239;-73
2024/02/25 06:22:10;;;;;;;6.45;5.85;;;3.30;1.00;;;;;;5089989;28;20334;-73
2024/02/25 06:24:37;;;;;;;5.95;5.35;;;3.30;1.00;;;;;;5095840;27;20232;-73
2024/02/25 06:27:04;;;;;;;7.88;5.68;;;3.30;1.00;;;;;;5090801;28;20612;-73
2024/02/25 06:29:31;;;;;;;6.70;5.97;;;3.40;1.00;;;;;;5091201;28;20239;-73
2024/02/25 06:31:59;;;;;;;6.82;5.70;;;3.30;1.00;;;;;;5090932;28;20247;-74
2024/02/25 06:34:26;;;;;;;6.53;5.05;;;3.30;1.00;;;;;;5085501;28;20243;-71
2024/02/25 06:36:54;;;;;;;6.32;5.63;;;3.30;1.00;;;;;;5087147;28;20968;-71
2024/02/25 06:39:22;;;;;;;6.93;6.22;;;3.30;1.00;;;;;;5098967;27;20303;-74
2024/02/25 06:41:51;;;;;;;7.40;5.70;;;3.30;1.00;;;;;;5088001;27;21000;-73
2024/02/25 06:44:18;;;;;;;6.80;6.05;;;3.20;1.00;;;;;;5091505;27;20324;-74
2024/02/25 06:46:45;;;;;;;7.13;6.43;;;3.20;1.00;;;;;;5095466;27;20327;-72
2024/02/25 06:49:12;;;;;;;6.97;6.30;;;3.30;1.00;;;;;;5089757;27;20320;-72
2024/02/25 06:51:39;;;;;;;6.28;5.68;;;3.30;1.00;;;;;;5094340;27;21033;-72
2024/02/25 06:54:06;;;;;;;7.07;5.43;;;3.20;1.00;;;;;;5092620;27;20331;-72
2024/02/25 06:56:34;;;;;;;6.30;5.32;;;3.40;1.00;;;;;;5099547;27;20326;-72
2024/02/25 06:59:01;;;;;;;7.07;6.38;;;3.60;1.00;;;;;;5103080;27;20597;-71
2024/02/25 07:01:28;;;;;;;17.92;13.18;;;3.70;1.00;;;;;;5089464;27;20740;-73
2024/02/25 07:03:55;;;;;;;7.43;6.63;;;3.80;1.00;;;;;;5090614;28;20240;-73
2024/02/25 07:06:22;;;;;;;7.40;6.25;;;3.90;1.00;;;;;;5097367;27;20318;-72
2024/02/25 07:08:50;;;;;;;7.70;6.90;;;3.80;1.00;;;;;;5090986;28;20314;-73
2024/02/25 07:11:17;;;;;;;6.10;5.60;;;3.80;1.00;;;;;;5092364;27;20250;-72
2024/02/25 07:13:47;;;;;;;6.68;6.05;;;3.80;1.00;;;;;;5091351;28;20300;-72
2024/02/25 07:16:16;;;;;;;6.95;6.28;;;3.80;1.00;;;;;;5088966;27;20682;-72
2024/02/25 07:18:43;;;;;;;5.85;5.28;;;3.90;1.00;;;;;;5100875;27;21985;-75
2024/02/25 07:21:11;;;;;;;8.00;6.47;;;4.00;1.00;;;;;;5101195;27;20267;-75
2024/02/25 07:23:41;;;;;;;7.10;6.40;;;4.10;1.00;;;;;;5097995;27;20271;-74
2024/02/25 07:26:08;;;;;;;6.70;6.05;;;4.20;1.00;;;;;;5106818;27;20266;-74
2024/02/25 07:28:35;;;;;;;6.00;5.38;;;4.20;1.00;;;;;;5089390;28;20235;-76
2024/02/25 07:31:04;;;;;;;5.85;5.45;;;4.20;1.00;;;;;;5090726;28;20681;-75
2024/02/25 07:33:31;;;;;;;6.70;6.10;;;4.20;1.00;;;;;;5103960;27;20298;-74
2024/02/25 07:35:58;;;;;;;6.30;5.70;;;4.20;1.00;;;;;;5097019;27;20232;-75
2024/02/25 07:38:25;;;;;;;6.90;6.00;;;4.20;1.00;;;;;;5087542;28;20248;-75
2024/02/25 07:40:53;;;;;;;5.88;5.20;;;4.20;1.00;;;;;;5099691;27;20267;-74
2024/02/25 07:43:20;;;;;;;6.22;5.65;;;4.20;1.00;;;;;;5098613;27;20320;-74
2024/02/25 07:45:47;;;;;;;5.82;5.30;;;4.20;1.00;;;;;;5093684;27;20240;-74
2024/02/25 07:48:15;;;;;;;9.60;7.15;;;4.30;1.00;;;;;;5088809;28;20327;-74
2024/02/25 07:50:43;;;;;;;7.90;7.20;;;4.30;1.00;;;;;;5090523;27;20335;-77
2024/02/25 07:53:09;;;;;;;8.95;7.95;;;4.30;1.00;;;;;;5088296;27;20240;-75
2024/02/25 07:55:36;;;;;;;8.60;7.07;;;4.30;1.00;;;;;;5088273;28;20321;-74
2024/02/25 07:58:04;;;;;;;9.32;8.52;;;4.40;1.00;;;;;;5090159;27;20712;-74
2024/02/25 08:00:31;;;;;;;7.40;6.70;;;4.50;1.00;;;;;;5094847;27;20234;-74
2024/02/25 08:02:58;;;;;;;7.00;6.30;;;4.60;1.00;;;;;;5104543;27;20932;-75
2024/02/25 08:05:29;;;;;;;7.40;6.70;;;4.70;1.00;;;;;;5087536;28;20260;-75
2024/02/25 08:07:57;;;;;;;12.27;8.30;;;4.80;1.00;;;;;;5098397;27;20720;-73
2024/02/25 08:10:25;;;;;;;8.15;7.35;;;4.90;1.00;;;;;;5083401;27;20713;-73
2024/02/25 08:12:54;;;;;;;9.32;7.47;;;5.00;1.00;;;;;;5086975;28;20240;-75
2024/02/25 08:15:22;;;;;;;8.93;7.40;;;5.10;1.00;;;;;;5088949;27;20260;-74
2024/02/25 08:17:49;;;;;;;8.43;7.30;;;5.20;1.00;;;;;;5088011;27;20295;-75
2024/02/25 08:20:16;;;;;;;7.90;6.47;;;5.30;1.00;;;;;;5090040;27;20984;-74
2024/02/25 08:22:44;;;;;;;8.50;7.70;;;5.50;1.00;;;;;;5112379;27;20244;-74
2024/02/25 08:25:11;;;;;;;7.20;6.50;;;5.60;1.00;;;;;;5100232;27;20365;-77
2024/02/25 08:27:40;;;;;;;9.32;7.43;;;5.60;1.00;;;;;;5108827;27;20239;-75
2024/02/25 08:30:08;;;;;;;8.48;6.43;;;5.70;1.00;;;;;;5089352;27;20240;-76
2024/02/25 08:32:35;;;;;;;9.63;7.60;;;5.80;1.00;;;;;;5071364;28;20298;-76
2024/02/25 08:35:03;;;;;;;8.10;7.30;;;6.00;1.00;;;;;;5083871;27;20241;-74
2024/02/25 08:37:29;;;;;;;7.80;6.30;;;6.00;1.00;;;;;;5087984;28;21241;-73
2024/02/25 08:39:58;;;;;;;6.70;6.00;;;6.10;1.00;;;;;;5097093;27;20451;-74
2024/02/25 08:42:26;;;;;;;6.83;6.17;;;6.20;1.00;;;;;;5089801;28;20301;-74
2024/02/25 08:44:53;;;;;;;8.20;7.00;;;6.30;1.00;;;;;;5086575;28;20448;-73
2024/02/25 08:47:20;;;;;;;10.48;7.25;;;6.40;1.00;;;;;;5087956;27;20558;-74
2024/02/25 08:49:47;;;;;;;7.85;7.15;;;6.40;1.00;;;;;;5094202;27;20727;-74
2024/02/25 08:52:14;;;;;;;7.63;6.33;;;6.50;1.00;;;;;;5095831;27;20331;-74
2024/02/25 08:54:42;;;;;;;8.00;6.35;;;6.70;1.00;;;;;;5092957;27;20463;-76
2024/02/25 08:57:12;;;;;;;6.47;5.72;;;7.00;1.00;;;;;;5087960;27;20266;-74
2024/02/25 08:59:39;;;;;;;7.50;6.80;;;7.50;1.00;;;;;;5085228;28;20239;-73
2024/02/25 09:02:07;;;;;;;6.87;6.27;;;8.30;1.00;;;;;;5085015;28;20561;-74
2024/02/25 09:04:34;;;;;;;7.20;6.50;;;9.00;1.00;;;;;;5090176;27;20470;-74
2024/02/25 09:07:03;;;;;;;7.07;6.20;;;9.80;1.00;;;;;;5081877;28;20534;-75
2024/02/25 09:09:31;;;;;;;6.93;6.30;;;10.80;1.00;;;;;;5081067;28;20450;-77
2024/02/25 09:11:58;;;;;;;6.10;5.53;;;11.30;1.00;;;;;;5081647;28;20820;-75
2024/02/25 09:14:28;;;;;;;6.43;5.83;;;11.80;1.00;;;;;;5085214;28;20490;-74
2024/02/25 09:16:55;;;;;;;5.50;5.00;;;12.20;1.00;;;;;;5088471;27;20473;-75
2024/02/25 09:19:22;;;;;;;6.63;5.93;;;12.50;1.00;;;;;;5095674;27;20475;-75
2024/02/25 09:21:49;;;;;;;7.00;6.33;;;13.10;1.00;;;;;;5091913;27;20459;-74
2024/02/25 09:24:17;;;;;;;6.97;6.37;;;13.50;1.00;;;;;;5089669;27;20501;-75
2024/02/25 09:26:48;;;;;;;7.20;6.33;;;13.50;1.00;;;;;;5082078;28;20476;-74
2024/02/25 09:29:15;;;;;;;6.17;5.67;;;13.90;1.00;;;;;;5081096;28;20473;-74
2024/02/25 09:31:44;;;;;;;6.83;5.80;;;14.20;1.00;;;;;;5081900;28;21049;-77
2024/02/25 09:34:12;;;;;;;7.53;6.70;;;14.30;1.00;;;;;;5082148;28;20462;-75
2024/02/25 09:36:41;;;;;;;7.30;6.00;;;15.30;1.00;;;;;;5082476;28;20469;-74
2024/02/25 09:39:09;;;;;;;6.37;5.87;;;14.90;1.00;;;;;;5091282;27;20895;-74
2024/02/25 09:41:39;;;;;;;7.13;6.43;;;14.00;1.00;;;;;;5078129;28;20469;-74
2024/02/25 09:44:17;;;;;;;7.63;6.70;;;13.20;1.00;;;;;;5092461;27;20480;-77
2024/02/25 09:46:46;;;;;;;7.67;6.20;;;13.20;1.00;;;;;;5088038;28;20559;-76
2024/02/25 09:49:15;;;;;;;6.67;6.13;;;13.00;1.00;;;;;;5084761;28;20501;-75
2024/02/25 09:51:43;;;;;;;6.53;5.93;;;12.60;1.00;;;;;;5083123;28;20473;-77
2024/02/25 09:54:10;;;;;;;5.43;4.93;;;12.10;1.00;;;;;;5084080;27;20974;-75
2024/02/25 09:56:37;;;;;;;6.77;6.07;;;11.60;1.00;;;;;;5086595;28;20472;-75
2024/02/25 09:59:07;;;;;;;5.80;5.13;;;11.50;1.00;;;;;;5087578;28;20449;-75
2024/02/25 10:01:34;;;;;;;6.03;5.37;;;11.70;1.00;;;;;;5105480;27;20598;-76
2024/02/25 10:04:03;;;;;;;6.10;5.23;;;12.20;1.00;;;;;;5105109;27;20467;-76
2024/02/25 10:06:37;;;;;;;5.80;5.20;;;12.60;1.00;;;;;;5104928;27;20463;-76
2024/02/25 10:09:08;;;;;;;6.70;5.17;;;12.60;1.00;;;;;;5101266;27;20459;-75
2024/02/25 10:11:35;;;;;;;5.77;5.30;;;12.50;1.00;;;;;;5101420;27;20455;-77
2024/02/25 10:14:04;;;;;;;5.17;4.70;;;12.50;1.00;;;;;;5086235;28;20523;-74
2024/02/25 10:16:30;;;;;;;5.57;4.83;;;12.60;1.00;;;;;;5090051;27;21450;-76
2024/02/25 10:18:59;;;;;;;5.33;4.93;;;12.70;1.00;;;;;;5100322;27;20466;-75
2024/02/25 10:21:28;;;;;;;11.40;5.60;;;13.00;1.00;;;;;;5104805;27;20475;-75
2024/02/25 10:23:56;;;;;;;6.00;5.40;;;13.30;1.00;;;;;;5105198;27;20460;-74
2024/02/25 10:26:27;;;;;;;5.47;4.50;;;13.60;1.00;;;;;;5104381;27;20479;-75
2024/02/25 10:29:04;;;;;;;4.70;4.30;;;13.80;1.00;;;;;;5088093;28;20530;-74
2024/02/25 10:31:31;;;;;;;4.87;4.43;;;13.90;1.00;;;;;;5085365;27;20447;-76
2024/02/25 10:33:59;;;;;;;3.80;3.50;;;13.60;1.00;;;;;;5090935;27;20469;-74
2024/02/25 10:36:32;;;;;;;4.10;3.70;;;14.10;1.00;;;;;;5085870;27;20954;-76
2024/02/25 10:39:00;;;;;;;4.83;4.33;;;14.30;1.00;;;;;;5086512;28;20547;-77
2024/02/25 10:41:27;;;;;;;5.33;3.47;;;15.00;1.00;;;;;;5086634;28;20466;-75
2024/02/25 10:43:59;;;;;;;4.50;4.10;;;15.20;1.00;;;;;;5094263;27;20589;-75
2024/02/25 10:46:29;;;;;;;6.57;5.70;;;14.70;1.00;;;;;;5085927;27;20971;-75
2024/02/25 10:48:58;;;;;;;4.03;3.63;;;14.80;1.00;;;;;;5086776;28;20449;-76
2024/02/25 10:51:26;;;;;;;5.13;4.40;;;15.00;1.00;;;;;;5075861;28;20473;-75
2024/02/25 10:53:55;;;;;;;4.60;3.90;;;14.30;1.00;;;;;;5086697;28;20504;-75
2024/02/25 10:56:22;;;;;;;5.07;4.57;;;14.20;1.00;;;;;;5073067;27;20503;-76
2024/02/25 10:58:50;;;;;;;4.23;3.90;;;14.00;1.00;;;;;;5085515;28;20457;-76
2024/02/25 11:01:18;;;;;;;4.27;3.87;;;14.20;1.00;;;;;;5077762;28;20457;-77
2024/02/25 11:03:47;;;;;;;4.20;3.80;;;14.50;1.00;;;;;;5101378;27;20515;-76
2024/02/25 11:06:30;;;;;;;4.20;3.30;;;14.70;1.00;;;;;;5083418;28;20494;-75
2024/02/25 11:09:02;;;;;;;3.83;3.53;;;15.10;1.00;;;;;;5086145;28;20480;-75
2024/02/25 11:11:30;;;;;;;4.03;3.63;;;16.40;1.00;;;;;;5084914;27;20597;-75
2024/02/25 11:14:00;;;;;;;3.57;3.27;;;18.00;1.00;;;;;;5073938;28;20534;-77
2024/02/25 11:16:30;;;;;;;4.00;3.20;;;18.70;1.00;;;;;;5087972;28;20495;-76
2024/02/25 11:19:00;;;;;;;2.93;2.67;;;18.90;1.00;;;;;;5095982;27;20427;-77
2024/02/25 11:21:30;;;;;;;2.90;2.57;;;18.70;1.00;;;;;;5082718;28;20924;-77
2024/02/25 11:23:59;;;;;;;2.70;2.50;;;19.20;1.00;;;;;;5086182;28;20457;-76
2024/02/25 11:26:42;;;;;;;3.13;2.47;;;19.40;1.00;;;;;;5087972;28;20950;-76
2024/02/25 11:29:25;;;;;;;2.33;2.13;;;19.20;1.00;;;;;;5087294;28;20620;-76
2024/02/25 11:31:58;;;;;;;2.70;2.50;;;18.40;1.00;;;;;;5087918;27;20443;-78
2024/02/25 11:34:26;;;;;;;2.30;2.10;;;17.80;1.00;;;;;;5085314;28;20464;-75
2024/02/25 11:36:55;;;;;;;3.67;3.30;;;18.60;1.00;;;;;;5094065;27;20447;-78
2024/02/25 11:39:28;;;;;;;4.13;2.70;;;18.90;1.00;;;;;;5089419;28;20986;-79
2024/02/25 11:41:59;;;;;;;3.00;2.30;;;19.60;1.00;;;;;;5102419;27;20474;-81
2024/02/25 11:44:28;;;;;;;1.77;1.67;;;21.00;1.00;;;;;;5104625;27;20533;-80
2024/02/25 11:46:57;;;;;;;1.63;1.40;;;22.10;1.00;;;;;;5092689;28;20518;-78
2024/02/25 11:49:25;;;;;;;1.63;1.17;;;21.60;1.00;;;;;;5094362;27;20490;-79
2024/02/25 11:51:52;;;;;;;1.53;1.33;;;21.10;1.00;;;;;;5108752;27;20430;-80
2024/02/25 11:54:20;;;;;;;1.67;1.33;;;20.80;1.00;;;;;;5112740;27;20533;-78
2024/02/25 11:56:50;;;;;;;1.40;1.20;;;20.60;1.00;;;;;;5100040;27;20516;-79
2024/02/25 11:59:19;;;;;;;1.77;1.27;;;20.30;1.00;;;;;;5106377;27;20457;-74
2024/02/25 12:01:47;;;;;;;1.30;1.20;;;19.70;1.00;;;;;;5084990;28;20513;-75
2024/02/25 12:04:15;;;;;;;1.27;1.10;;;20.10;1.00;;;;;;5089825;28;20476;-75
2024/02/25 12:06:43;;;;;;;1.73;1.40;;;20.90;1.00;;;;;;5104299;27;21004;-75
2024/02/25 12:09:10;;;;;;;1.40;1.30;;;20.00;1.00;;;;;;5090762;27;20527;-74
2024/02/25 12:11:42;;;;;;;2.20;1.40;;;19.80;1.00;;;;;;5093485;27;20490;-76
2024/02/25 12:14:26;;;;;;;1.30;0.90;;;20.30;1.00;;;;;;5085525;28;20446;-75
2024/02/25 12:16:53;;;;;;;1.30;1.10;;;20.90;1.00;;;;;;5088419;28;20983;-74
2024/02/25 12:19:21;;;;;;;1.30;1.00;;;21.40;1.00;;;;;;5084578;27;20468;-77
2024/02/25 12:21:52;;;;;;;1.20;1.10;;;21.60;1.00;;;;;;5090221;28;21591;-79
2024/02/25 12:24:19;;;;;;;1.30;1.07;;;21.90;1.00;;;;;;5088053;28;20428;-77
2024/02/25 12:26:51;;;;;;;1.70;1.37;;;22.00;1.00;;;;;;5090704;27;20498;-73
2024/02/25 12:29:19;;;;;;;1.23;1.10;;;22.70;1.00;;;;;;5105248;27;21848;-74
2024/02/25 12:31:48;;;;;;;1.00;0.90;;;23.40;1.00;;;;;;5087680;27;21723;-75
2024/02/25 12:34:16;;;;;;;1.17;1.00;;;23.50;1.00;;;;;;5103825;27;20457;-73
2024/02/25 12:36:44;;;;;;;1.57;1.10;;;23.80;1.00;;;;;;5095725;27;20996;-77
2024/02/25 12:39:12;;;;;;;1.10;0.90;;;24.60;1.00;;;;;;5085401;28;21291;-77
2024/02/25 12:41:40;;;;;;;1.53;1.10;;;24.20;1.00;;;;;;5087392;28;20476;-76
2024/02/25 12:44:07;;;;;;;1.10;0.80;;;24.10;1.00;;;;;;5083882;28;20548;-76
2024/02/25 12:46:35;;;;;;;2.77;1.53;;;23.40;1.00;;;;;;5088023;28;22119;-76
2024/02/25 12:49:12;;;;;;;1.20;1.10;;;23.10;1.00;;;;;;5087206;28;20488;-77
2024/02/25 12:51:39;;;;;;;0.70;0.70;;;23.00;1.00;;;;;;5097638;27;20523;-73
2024/02/25 12:54:07;;;;;;;2.20;1.00;;;22.90;1.00;;;;;;5087575;28;20541;-76
2024/02/25 12:56:34;;;;;;;1.10;1.00;;;22.20;1.00;;;;;;5096174;27;20552;-77
2024/02/25 12:59:01;;;;;;;1.40;1.07;;;21.70;1.00;;;;;;5098029;27;20542;-78
2024/02/25 13:01:31;;;;;;;3.10;0.90;;;21.40;1.00;;;;;;5090953;27;20500;-75
2024/02/25 13:03:58;;;;;;;0.90;0.80;;;21.00;1.00;;;;;;5106390;27;20462;-77
2024/02/25 13:06:27;;;;;;;1.10;1.00;;;19.90;1.00;;;;;;5091298;27;20451;-75
2024/02/25 13:08:54;;;;;;;1.10;1.00;;;18.70;1.00;;;;;;5105403;27;20455;-78